createdAt,value
2022-09-02T00:03:05.356Z,101709.38
2022-09-02T00:08:10.819Z,101711.03
2022-09-02T00:13:16.366Z,101703.88
2022-09-02T00:18:19.833Z,101701.91
2022-09-02T00:23:25.588Z,101699.13
2022-09-02T00:28:30.571Z,101694.63
2022-09-02T00:33:33.594Z,101688.34
2022-09-02T00:38:39.728Z,101691.75
2022-09-02T00:43:46.857Z,101680.16
2022-09-02T00:48:57.195Z,101680.06
2022-09-02T00:54:02.224Z,101667.47
2022-09-02T00:59:05.837Z,101674.47
2022-09-02T01:04:09.088Z,101662.94
2022-09-02T01:09:16.810Z,101667.31
2022-09-02T01:14:19.871Z,101662.00
2022-09-02T01:19:26.354Z,101664.59
2022-09-02T01:24:33.096Z,101669.88
2022-09-02T01:29:36.154Z,101656.47
2022-09-02T01:34:39.874Z,101650.03
2022-09-02T01:39:45.186Z,101658.13
2022-09-02T01:44:48.800Z,101662.47
2022-09-02T01:49:52.576Z,101656.22
2022-09-02T01:54:58.037Z,101652.59
2022-09-02T02:00:01.807Z,101655.16
2022-09-02T02:05:15.966Z,101645.38
2022-09-02T02:10:23.107Z,101639.09
2022-09-02T02:20:28.458Z,101647.00
2022-09-02T02:25:34.068Z,101627.22
2022-09-02T02:30:37.403Z,101636.16
2022-09-02T02:35:42.539Z,101641.47
2022-09-02T02:40:47.693Z,101640.47
2022-09-02T02:45:50.720Z,101636.00
2022-09-02T02:50:54.389Z,101634.09
2022-09-02T02:55:58.966Z,101627.91
2022-09-02T03:01:02.187Z,101625.22
2022-09-02T03:06:06.272Z,101611.88
2022-09-02T03:11:10.634Z,101613.69
2022-09-02T03:16:19.837Z,101620.78
2022-09-02T03:21:23.828Z,101616.44
2022-09-02T03:26:28.868Z,101616.50
2022-09-02T03:31:32.601Z,101612.13
2022-09-02T03:36:38.805Z,101609.50
2022-09-02T03:41:44.966Z,101617.31
2022-09-02T03:46:48.327Z,101603.09
2022-09-02T03:51:51.367Z,101595.88
2022-09-02T03:56:55.766Z,101603.75
2022-09-02T04:02:00.231Z,101590.38
2022-09-02T04:07:04.093Z,101589.41
2022-09-02T04:12:08.965Z,101589.34
2022-09-02T04:17:11.998Z,101585.75
2022-09-02T04:22:14.967Z,101585.59
2022-09-02T04:27:19.441Z,101582.03
2022-09-02T04:32:22.759Z,101583.66
2022-09-02T04:37:27.468Z,101577.44
2022-09-02T04:42:32.563Z,101580.16
2022-09-02T04:47:35.776Z,101580.31
2022-09-02T04:52:40.305Z,101574.16
2022-09-02T04:57:45.174Z,101567.88
2022-09-02T05:02:50.164Z,101569.63
2022-09-02T05:07:56.409Z,101575.78
2022-09-02T05:13:01.444Z,101579.25
2022-09-02T05:18:05.835Z,101581.03
2022-09-02T05:23:09.450Z,101580.94
2022-09-02T05:28:14.361Z,101572.97
2022-09-02T05:33:17.537Z,101580.16
2022-09-02T05:38:25.239Z,101580.09
2022-09-02T05:43:29.811Z,101576.47
2022-09-02T05:48:51.408Z,101578.28
2022-09-02T05:53:56.362Z,101576.56
2022-09-02T05:59:01.947Z,101571.41
2022-09-02T06:04:07.334Z,101568.84
2022-09-02T06:09:13.983Z,101570.88
2022-09-02T06:14:22.441Z,101578.22
2022-09-02T06:19:28.990Z,101577.59
2022-09-02T06:24:34.516Z,101568.22
2022-09-02T06:29:45.990Z,101577.19
2022-09-02T06:34:51.842Z,101572.03
2022-09-02T06:39:55.946Z,101562.44
2022-09-02T06:45:03.871Z,101568.81
2022-09-02T06:50:08.497Z,101557.44
2022-09-02T06:55:12.166Z,101562.97
2022-09-02T07:00:17.799Z,101558.78
2022-09-02T07:05:20.907Z,101553.81
2022-09-02T07:10:23.961Z,101548.09
2022-09-02T07:15:32.358Z,101555.72
2022-09-02T07:20:35.824Z,101549.19
2022-09-02T07:25:41.301Z,101547.03
2022-09-02T07:30:47.481Z,101538.41
2022-09-02T07:35:53.680Z,101538.78
2022-09-02T07:40:58.104Z,101538.13
2022-09-02T07:46:07.313Z,101534.78
2022-09-02T07:51:11.362Z,101534.16
2022-09-02T07:56:15.722Z,101531.69
2022-09-02T08:01:23.543Z,101541.72
2022-09-02T08:06:34.804Z,101536.56
2022-09-02T08:11:39.064Z,101529.59
2022-09-02T08:16:43.875Z,101514.56
2022-09-02T08:21:46.931Z,101528.19
2022-09-02T08:26:50.690Z,101527.50
2022-09-02T08:31:55.059Z,101511.56
2022-09-02T08:36:58.170Z,101505.28
2022-09-02T08:42:09.807Z,101516.88
2022-09-02T08:47:19.997Z,101513.41
2022-09-02T08:52:29.792Z,101515.28
2022-09-02T08:57:33.662Z,101510.88
2022-09-02T09:02:47.527Z,101515.31
2022-09-02T09:08:13.991Z,101513.47
2022-09-02T09:13:49.850Z,101516.91
2022-09-02T09:19:01.768Z,101511.34
2022-09-02T09:24:10.717Z,101508.50
2022-09-02T09:29:13.719Z,101497.72
2022-09-02T09:34:18.685Z,101490.28
2022-09-02T09:39:24.959Z,101496.34
2022-09-02T09:44:37.464Z,101490.19
2022-09-02T09:49:41.901Z,101484.72
2022-09-02T09:54:44.833Z,101481.06
2022-09-02T09:59:50.008Z,101476.44
2022-09-02T10:04:56.433Z,101488.41
2022-09-02T10:10:13.305Z,101476.41
2022-09-02T10:15:20.719Z,101458.41
2022-09-02T10:20:38.963Z,101477.50
2022-09-02T10:26:04.127Z,101471.22
2022-09-02T10:31:13.494Z,101474.66
2022-09-02T10:36:28.756Z,101470.09
2022-09-02T10:47:00.209Z,101459.13
2022-09-02T10:52:11.166Z,101446.56
2022-09-02T10:57:17.918Z,101456.03
2022-09-02T11:02:26.165Z,101443.44
2022-09-02T11:07:49.863Z,101439.38
2022-09-02T11:13:00.880Z,101427.91
2022-09-02T11:18:10.516Z,101429.09
2022-09-02T11:23:21.727Z,101416.22
2022-09-02T11:28:38.887Z,101414.09
2022-09-02T11:33:54.033Z,101406.44
2022-09-02T11:39:03.340Z,101399.41
2022-09-02T11:44:41.630Z,101402.53
2022-09-02T11:50:13.104Z,101389.66
2022-09-02T11:55:22.814Z,101394.72
2022-09-02T12:00:30.706Z,101371.69
2022-09-02T12:05:47.888Z,101375.66
2022-09-02T12:11:04.905Z,101367.44
2022-09-02T12:16:38.014Z,101370.47
2022-09-02T12:22:21.832Z,101363.88
2022-09-02T12:27:29.713Z,101352.53
2022-09-02T12:33:05.147Z,101350.22
2022-09-02T12:38:40.082Z,101340.00
2022-09-02T12:44:12.450Z,101337.13
2022-09-02T12:49:29.829Z,101322.50
2022-09-02T12:54:41.674Z,101325.31
2022-09-02T12:59:47.812Z,101322.56
2022-09-02T13:05:01.460Z,101316.50
2022-09-02T13:10:24.686Z,101307.47
2022-09-02T13:15:43.139Z,101303.78
2022-09-02T13:21:14.222Z,101304.13
2022-09-02T13:26:49.334Z,101290.41
2022-09-02T13:32:14.168Z,101292.69
2022-09-02T13:37:28.674Z,101293.66
2022-09-02T13:42:32.879Z,101282.59
2022-09-02T13:47:38.405Z,101289.28
2022-09-02T13:53:34.684Z,101273.53
2022-09-02T13:58:09.082Z,101274.78
2022-09-02T14:03:18.383Z,101254.88
2022-09-02T14:08:24.650Z,101258.31
2022-09-02T14:13:28.298Z,101262.50
2022-09-02T14:18:32.633Z,101254.94
2022-09-02T14:23:39.547Z,101246.81
2022-09-02T14:28:42.554Z,101242.16
2022-09-02T14:33:47.612Z,101228.03
2022-09-02T14:38:52.818Z,101232.38
2022-09-02T14:43:58.049Z,101217.63
2022-09-02T14:49:05.615Z,101225.94
2022-09-02T14:54:09.089Z,101218.72
2022-09-02T14:59:12.421Z,101216.75
2022-09-02T15:04:17.118Z,101200.88
2022-09-02T15:09:20.071Z,101206.34
2022-09-02T15:14:23.128Z,101195.13
2022-09-02T15:19:27.353Z,101203.03
2022-09-02T15:24:30.308Z,101190.06
2022-09-02T15:29:36.188Z,101187.34
2022-09-02T15:34:41.139Z,101188.66
2022-09-02T15:39:44.640Z,101175.03
2022-09-02T15:44:47.896Z,101176.19
2022-09-02T15:49:53.531Z,101170.41
2022-09-02T15:54:56.625Z,101157.97
2022-09-02T16:00:00.339Z,101155.66
2022-09-02T16:05:05.096Z,101152.69
2022-09-02T16:10:09.374Z,101154.88
2022-09-02T16:15:12.503Z,101148.78
2022-09-02T16:20:20.982Z,101141.75
2022-09-02T16:25:25.331Z,101143.94
2022-09-02T16:30:29.995Z,101141.25
2022-09-02T16:35:34.353Z,101142.88
2022-09-02T16:40:37.725Z,101125.53
2022-09-02T16:45:40.682Z,101126.28
2022-09-02T16:50:45.169Z,101124.75
2022-09-02T16:55:48.119Z,101120.34
2022-09-02T17:00:51.171Z,101120.31
2022-09-02T17:05:55.596Z,101115.59
2022-09-02T17:11:13.011Z,101114.09
2022-09-02T17:16:16.291Z,101113.97
2022-09-02T17:21:25.377Z,101114.28
2022-09-02T17:26:30.853Z,101108.06
2022-09-02T17:31:34.919Z,101109.75
2022-09-02T17:36:42.008Z,101114.72
2022-09-02T17:41:58.395Z,101110.31
2022-09-02T17:47:02.739Z,101120.72
2022-09-02T17:52:08.494Z,101113.41
2022-09-02T17:57:31.004Z,101116.88
2022-09-02T18:02:43.583Z,101113.22
2022-09-02T18:08:00.984Z,101113.88
2022-09-02T18:13:06.869Z,101111.22
2022-09-02T18:18:12.030Z,101112.69
2022-09-02T18:23:28.661Z,101098.09
2022-09-02T18:28:45.311Z,101105.72
2022-09-02T18:34:11.917Z,101101.72
2022-09-02T18:39:35.144Z,101106.72
2022-09-02T18:44:47.323Z,101112.41
2022-09-02T18:49:53.596Z,101112.03
2022-09-02T18:55:04.362Z,101122.16
2022-09-02T19:00:09.214Z,101123.56
2022-09-02T19:05:14.653Z,101126.59
2022-09-02T19:10:19.073Z,101130.38
2022-09-02T19:15:22.487Z,101134.09
2022-09-02T19:20:25.528Z,101136.00
2022-09-02T19:25:31.371Z,101144.25
2022-09-02T19:30:37.360Z,101133.72
2022-09-02T19:35:46.659Z,101134.78
2022-09-02T19:40:50.985Z,101131.34
2022-09-02T19:45:54.006Z,101144.88
2022-09-02T19:50:57.041Z,101141.41
2022-09-02T19:56:01.511Z,101143.34
2022-09-02T20:01:05.912Z,101144.31
2022-09-02T20:06:09.066Z,101135.47
2022-09-02T20:11:13.894Z,101141.78
2022-09-02T20:16:20.569Z,101148.09
2022-09-02T20:21:26.594Z,101141.94
2022-09-02T20:26:41.895Z,101153.59
2022-09-02T20:32:01.421Z,101144.75
2022-09-02T20:37:19.628Z,101143.03
2022-09-02T20:42:42.227Z,101143.06
2022-09-02T20:47:59.226Z,101131.53
2022-09-02T20:53:16.510Z,101137.75
2022-09-02T20:58:32.997Z,101131.56
2022-09-02T21:03:51.422Z,101138.69
2022-09-02T21:09:02.251Z,101136.91
2022-09-02T21:14:11.317Z,101138.72
2022-09-02T21:19:18.507Z,101129.81
2022-09-02T21:24:25.466Z,101139.59
2022-09-02T21:29:33.099Z,101142.28
2022-09-02T21:34:40.113Z,101136.09
2022-09-02T21:39:51.311Z,101129.84
2022-09-02T21:45:11.551Z,101136.06
2022-09-02T21:50:22.035Z,101131.63
2022-09-02T21:55:38.858Z,101138.69
2022-09-02T22:00:49.494Z,101133.38
2022-09-02T22:05:55.962Z,101136.03
2022-09-02T22:11:09.746Z,101117.34
2022-09-02T22:16:22.066Z,101121.75
2022-09-02T22:21:30.466Z,101118.19
2022-09-02T22:26:40.058Z,101120.84
2022-09-02T22:31:45.746Z,101119.06
2022-09-02T22:37:06.166Z,101118.16
2022-09-02T22:42:21.538Z,101111.91
2022-09-02T22:47:44.428Z,101118.06
2022-09-02T22:52:50.607Z,101114.47
2022-09-02T22:58:05.366Z,101117.97
2022-09-02T23:03:18.660Z,101111.72
2022-09-02T23:08:22.893Z,101109.94
2022-09-02T23:13:48.625Z,101108.13
2022-09-02T23:19:07.305Z,101101.94
2022-09-02T23:24:19.851Z,101101.00
2022-09-02T23:29:26.518Z,101101.00
2022-09-02T23:34:45.834Z,101103.66
2022-09-02T23:39:59.505Z,101097.41
2022-09-02T23:45:22.009Z,101098.25
2022-09-02T23:50:35.885Z,101091.13
2022-09-02T23:55:48.668Z,101076.91
